createdAt,value
2019-03-04T00:00:10.672Z,0.00
2019-03-04T00:01:10.661Z,0.00
2019-03-04T00:02:10.652Z,0.00
2019-03-04T00:03:10.639Z,0.00
2019-03-04T00:04:10.583Z,0.00
2019-03-04T00:05:10.619Z,0.00
2019-03-04T00:06:10.612Z,0.00
2019-03-04T00:07:10.599Z,0.00
2019-03-04T00:08:10.586Z,0.00
2019-03-04T00:09:10.579Z,0.00
2019-03-04T00:10:10.565Z,0.00
2019-03-04T00:11:10.558Z,0.00
2019-03-04T00:12:10.544Z,0.00
2019-03-04T00:13:10.538Z,0.00
2019-03-04T00:14:10.523Z,0.00
2019-03-04T00:15:10.514Z,0.00
2019-03-04T00:16:10.503Z,0.00
2019-03-04T00:17:10.492Z,0.00
2019-03-04T00:18:10.478Z,0.00
2019-03-04T00:19:10.468Z,0.00
2019-03-04T00:20:10.460Z,0.00
2019-03-04T00:21:10.448Z,0.00
2019-03-04T00:22:10.354Z,0.00
2019-03-04T00:23:10.427Z,0.00
2019-03-04T00:24:10.424Z,0.00
2019-03-04T00:25:10.409Z,0.00
2019-03-04T00:26:10.394Z,0.00
2019-03-04T00:27:10.386Z,0.00
2019-03-04T00:28:10.373Z,0.00
2019-03-04T00:29:10.368Z,0.00
2019-03-04T00:30:10.354Z,0.00
2019-03-04T00:31:10.343Z,0.00
2019-03-04T00:32:10.331Z,0.00
2019-03-04T00:33:10.323Z,0.00
2019-03-04T00:34:10.405Z,0.00
2019-03-04T00:35:10.303Z,0.00
2019-03-04T00:36:10.291Z,0.00
2019-03-04T00:37:10.287Z,0.00
2019-03-04T00:38:10.269Z,0.00
2019-03-04T00:39:10.264Z,0.00
2019-03-04T00:41:10.238Z,0.00
2019-03-04T00:42:10.227Z,0.00
2019-03-04T00:43:10.219Z,0.00
2019-03-04T00:44:10.209Z,0.00
2019-03-04T00:45:10.195Z,0.00
2019-03-04T00:46:10.185Z,0.00
2019-03-04T00:47:10.173Z,0.00
2019-03-04T00:48:10.164Z,0.00
2019-03-04T00:50:10.169Z,0.00
2019-03-04T00:51:10.217Z,0.00
2019-03-04T00:52:10.122Z,0.00
2019-03-04T00:53:10.112Z,0.00
2019-03-04T00:54:10.332Z,0.00
2019-03-04T00:55:10.092Z,0.00
2019-03-04T00:56:10.083Z,0.00
2019-03-04T00:57:10.070Z,0.00
2019-03-04T00:58:10.057Z,0.00
2019-03-04T00:59:10.051Z,0.00
2019-03-04T01:00:10.085Z,0.00
2019-03-04T01:01:10.041Z,0.00
2019-03-04T01:02:10.018Z,0.00
2019-03-04T01:03:10.007Z,0.00
2019-03-04T01:04:10.000Z,0.00
2019-03-04T01:05:09.988Z,0.00
2019-03-04T01:06:09.976Z,0.00
2019-03-04T01:07:09.964Z,0.00
2019-03-04T01:08:09.953Z,0.00
2019-03-04T01:09:10.043Z,0.00
2019-03-04T01:10:09.933Z,0.00
2019-03-04T01:11:09.924Z,0.00
2019-03-04T01:12:09.910Z,0.00
2019-03-04T01:13:09.905Z,0.00
2019-03-04T01:14:09.958Z,0.00
2019-03-04T01:15:09.967Z,0.00
2019-03-04T01:16:10.223Z,0.00
2019-03-04T01:17:09.858Z,0.00
2019-03-04T01:18:09.848Z,0.00
2019-03-04T01:19:09.838Z,0.00
2019-03-04T01:20:09.827Z,0.00
2019-03-04T01:21:09.818Z,0.00
2019-03-04T01:22:09.807Z,0.00
2019-03-04T01:23:09.794Z,0.00
2019-03-04T01:24:09.785Z,0.00
2019-03-04T01:25:09.773Z,0.00
2019-03-04T01:26:09.764Z,0.00
2019-03-04T01:27:09.754Z,4.00
2019-03-04T01:28:09.741Z,4.00
2019-03-04T01:29:09.729Z,0.00
2019-03-04T01:30:09.722Z,4.00
2019-03-04T01:31:09.710Z,8.00
2019-03-04T01:32:09.703Z,4.00
2019-03-04T01:33:09.689Z,8.00
2019-03-04T01:34:09.678Z,8.00
2019-03-04T01:35:09.668Z,12.00
2019-03-04T01:36:09.657Z,16.00
2019-03-04T01:37:09.652Z,20.00
2019-03-04T01:38:09.634Z,20.00
2019-03-04T01:39:09.625Z,28.00
2019-03-04T01:40:09.615Z,32.00
2019-03-04T01:41:09.604Z,36.00
2019-03-04T01:42:09.594Z,44.00
2019-03-04T01:43:09.586Z,56.00
2019-03-04T01:44:09.572Z,64.00
2019-03-04T01:45:09.496Z,76.00
2019-03-04T01:46:09.553Z,88.00
2019-03-04T01:47:09.541Z,108.00
2019-03-04T01:48:09.534Z,124.00
2019-03-04T01:49:09.523Z,140.00
2019-03-04T01:50:09.506Z,164.00
2019-03-04T01:51:09.501Z,184.00
2019-03-04T01:52:09.567Z,208.00
2019-03-04T01:53:09.478Z,232.00
2019-03-04T01:54:09.468Z,260.00
2019-03-04T01:55:09.713Z,288.00
2019-03-04T01:56:09.448Z,320.00
2019-03-04T01:57:09.437Z,356.00
2019-03-04T01:58:09.427Z,396.00
2019-03-04T01:59:09.419Z,444.00
2019-03-04T02:00:09.408Z,492.00
2019-03-04T02:01:09.396Z,548.00
2019-03-04T02:02:09.384Z,600.00
2019-03-04T02:03:09.379Z,660.00
2019-03-04T02:04:09.364Z,724.00
2019-03-04T02:05:09.353Z,800.00
2019-03-04T02:06:09.343Z,880.00
2019-03-04T02:07:09.330Z,1060.00
2019-03-04T02:08:09.325Z,1340.00
2019-03-04T02:09:09.313Z,1668.00
2019-03-04T02:10:09.300Z,1828.00
2019-03-04T02:11:09.291Z,1992.00
2019-03-04T02:12:09.279Z,2312.00
2019-03-04T02:13:09.267Z,2636.00
2019-03-04T02:14:09.258Z,2792.00
2019-03-04T02:15:09.249Z,3204.00
2019-03-04T02:16:09.239Z,3800.00
2019-03-04T02:17:09.230Z,4036.00
2019-03-04T02:18:09.214Z,4044.00
2019-03-04T02:19:09.208Z,4532.00
2019-03-04T02:20:09.196Z,5092.00
2019-03-04T02:21:09.184Z,5316.00
2019-03-04T02:22:09.175Z,5816.00
2019-03-04T02:23:09.163Z,6608.00
2019-03-04T02:24:09.152Z,6856.00
2019-03-04T02:25:09.146Z,7140.00
2019-03-04T02:26:09.136Z,7948.00
2019-03-04T02:27:09.207Z,8420.00
2019-03-04T02:28:09.111Z,8844.00
2019-03-04T02:29:09.100Z,9816.00
2019-03-04T02:30:09.096Z,10452.00
2019-03-04T02:31:09.078Z,10032.00
2019-03-04T02:32:09.073Z,10632.00
2019-03-04T02:33:09.063Z,12124.00
2019-03-04T02:34:09.046Z,12028.00
2019-03-04T02:35:09.035Z,12104.00
2019-03-04T02:36:09.025Z,11360.00
2019-03-04T02:37:09.015Z,12164.00
2019-03-04T02:38:09.004Z,11120.00
2019-03-04T02:39:08.995Z,9676.00
2019-03-04T02:40:08.983Z,9504.00
2019-03-04T02:41:09.023Z,11436.00
2019-03-04T02:42:08.959Z,12448.00
2019-03-04T02:43:08.948Z,13364.00
2019-03-04T02:44:08.935Z,15572.00
2019-03-04T02:45:08.928Z,15640.00
2019-03-04T02:46:08.950Z,15320.00
2019-03-04T02:47:09.213Z,15040.00
2019-03-04T02:48:08.897Z,15176.00
2019-03-04T02:49:08.951Z,15128.00
2019-03-04T02:50:08.876Z,16320.00
2019-03-04T02:51:08.863Z,17600.00
2019-03-04T02:52:08.857Z,19424.00
2019-03-04T02:53:08.842Z,20416.00
2019-03-04T02:54:08.832Z,20864.00
2019-03-04T02:55:08.822Z,21952.00
2019-03-04T02:56:09.211Z,22592.00
2019-03-04T02:57:08.899Z,20384.00
2019-03-04T02:58:08.890Z,15508.00
2019-03-04T02:59:08.787Z,10736.00
2019-03-04T03:00:08.873Z,8740.00
2019-03-04T03:01:08.759Z,8476.00
2019-03-04T03:02:08.751Z,8416.00
2019-03-04T03:03:08.745Z,8364.00
2019-03-04T03:04:08.733Z,8144.00
2019-03-04T03:05:08.724Z,7880.00
2019-03-04T03:06:08.710Z,8048.00
2019-03-04T03:07:08.695Z,7928.00
2019-03-04T03:08:08.688Z,7852.00
2019-03-04T03:09:08.680Z,7840.00
2019-03-04T03:10:08.667Z,7852.00
2019-03-04T03:11:08.676Z,7860.00
2019-03-04T03:12:08.644Z,7756.00
2019-03-04T03:13:08.636Z,7680.00
2019-03-04T03:14:08.624Z,6792.00
2019-03-04T03:15:08.612Z,5176.00
2019-03-04T03:16:08.606Z,6068.00
2019-03-04T03:17:08.591Z,5012.00
2019-03-04T03:18:08.585Z,4612.00
2019-03-04T03:19:08.572Z,4744.00
2019-03-04T03:20:08.557Z,5616.00
2019-03-04T03:21:08.548Z,6972.00
2019-03-04T03:22:08.536Z,7920.00
2019-03-04T03:23:08.525Z,8080.00
2019-03-04T03:24:08.514Z,8580.00
2019-03-04T03:25:08.502Z,8920.00
2019-03-04T03:26:08.497Z,9180.00
2019-03-04T03:27:08.482Z,9264.00
2019-03-04T03:28:08.474Z,9340.00
2019-03-04T03:29:08.459Z,9372.00
2019-03-04T03:30:08.450Z,9392.00
2019-03-04T03:31:08.441Z,9352.00
2019-03-04T03:32:08.436Z,9348.00
2019-03-04T03:33:08.421Z,9316.00
2019-03-04T03:34:08.409Z,9300.00
2019-03-04T03:35:09.035Z,9260.00
2019-03-04T03:36:08.385Z,9196.00
2019-03-04T03:37:08.378Z,9160.00
2019-03-04T03:38:08.365Z,9096.00
2019-03-04T03:39:08.405Z,9024.00
2019-03-04T03:40:08.346Z,8848.00
2019-03-04T03:41:08.334Z,8744.00
2019-03-04T03:42:08.329Z,8652.00
2019-03-04T03:43:08.321Z,8540.00
2019-03-04T03:44:08.303Z,8444.00
2019-03-04T03:45:08.297Z,8340.00
2019-03-04T03:46:08.291Z,8224.00
2019-03-04T03:47:08.271Z,8168.00
2019-03-04T03:48:08.271Z,8088.00
2019-03-04T03:49:08.253Z,7980.00
2019-03-04T03:50:08.249Z,7872.00
2019-03-04T03:51:08.236Z,7788.00
2019-03-04T03:52:08.320Z,7740.00
2019-03-04T03:53:08.213Z,7748.00
2019-03-04T03:54:08.202Z,7696.00
2019-03-04T03:55:08.189Z,7712.00
2019-03-04T03:56:08.179Z,7732.00
2019-03-04T03:57:08.268Z,7748.00
2019-03-04T03:58:08.233Z,7732.00
2019-03-04T03:59:08.149Z,7724.00
2019-03-04T04:00:08.143Z,7696.00
2019-03-04T04:01:08.126Z,7664.00
2019-03-04T04:02:08.119Z,7624.00
2019-03-04T04:03:08.105Z,7608.00
2019-03-04T04:04:08.107Z,7552.00
2019-03-04T04:05:08.082Z,7492.00
2019-03-04T04:06:08.078Z,7416.00
2019-03-04T04:07:08.147Z,7428.00
2019-03-04T04:08:08.055Z,7400.00
2019-03-04T04:09:08.043Z,7360.00
2019-03-04T04:10:08.031Z,7348.00
2019-03-04T04:11:08.020Z,7332.00
2019-03-04T04:12:08.008Z,7304.00
2019-03-04T04:13:08.014Z,7284.00
2019-03-04T04:14:07.991Z,7256.00
2019-03-04T04:15:07.977Z,7220.00
2019-03-04T04:16:07.970Z,7184.00
2019-03-04T04:17:07.960Z,7156.00
2019-03-04T04:18:07.950Z,7128.00
2019-03-04T04:19:07.938Z,7136.00
2019-03-04T04:20:07.930Z,7132.00
2019-03-04T04:21:07.916Z,7132.00
2019-03-04T04:22:07.909Z,7108.00
2019-03-04T04:23:07.893Z,7080.00
2019-03-04T04:24:07.886Z,7052.00
2019-03-04T04:25:07.875Z,7016.00
2019-03-04T04:26:07.865Z,6992.00
2019-03-04T04:27:07.853Z,6956.00
2019-03-04T04:28:07.843Z,6932.00
2019-03-04T04:29:07.852Z,6916.00
2019-03-04T04:30:07.826Z,6920.00
2019-03-04T04:31:07.811Z,6840.00
2019-03-04T04:32:07.805Z,6928.00
2019-03-04T04:33:07.793Z,6924.00
2019-03-04T04:34:07.780Z,6916.00
2019-03-04T04:35:07.770Z,6916.00
2019-03-04T04:36:07.739Z,6908.00
2019-03-04T04:37:07.746Z,6912.00
2019-03-04T04:38:07.738Z,6912.00
2019-03-04T04:39:07.726Z,6912.00
2019-03-04T04:40:07.717Z,6900.00
2019-03-04T04:41:07.705Z,6892.00
2019-03-04T04:42:07.703Z,6888.00
2019-03-04T04:43:07.690Z,6892.00
2019-03-04T04:44:07.676Z,6892.00
2019-03-04T04:45:07.667Z,6892.00
2019-03-04T04:46:07.651Z,6884.00
2019-03-04T04:47:07.642Z,6888.00
2019-03-04T04:48:07.630Z,6888.00
2019-03-04T04:49:07.620Z,6884.00
2019-03-04T04:50:07.606Z,6876.00
2019-03-04T04:51:07.599Z,6856.00
2019-03-04T04:52:07.689Z,6224.00
2019-03-04T04:53:07.678Z,6092.00
2019-03-04T04:54:07.571Z,6668.00
2019-03-04T04:55:07.559Z,6712.00
2019-03-04T04:56:07.545Z,5968.00
2019-03-04T04:57:07.542Z,6224.00
2019-03-04T04:58:07.523Z,6600.00
2019-03-04T04:59:07.514Z,6528.00
2019-03-04T05:00:07.508Z,6276.00
2019-03-04T05:01:07.491Z,6412.00
2019-03-04T05:02:07.483Z,6636.00
2019-03-04T05:03:07.475Z,6680.00
2019-03-04T05:04:07.461Z,6712.00
2019-03-04T05:05:07.458Z,6768.00
2019-03-04T05:06:07.441Z,6860.00
2019-03-04T05:07:07.434Z,6860.00
2019-03-04T05:08:07.423Z,6864.00
2019-03-04T05:09:07.414Z,6892.00
2019-03-04T05:10:07.402Z,6896.00
2019-03-04T05:11:07.387Z,6912.00
2019-03-04T05:12:07.382Z,6928.00
2019-03-04T05:13:07.366Z,6956.00
2019-03-04T05:14:07.359Z,6960.00
2019-03-04T05:15:07.348Z,6952.00
2019-03-04T05:16:07.336Z,7020.00
2019-03-04T05:17:07.326Z,7008.00
2019-03-04T05:18:07.313Z,7132.00
2019-03-04T05:19:07.302Z,7228.00
2019-03-04T05:20:07.295Z,7136.00
2019-03-04T05:21:07.286Z,7056.00
2019-03-04T05:22:07.271Z,7024.00
2019-03-04T05:23:07.262Z,7020.00
2019-03-04T05:24:07.252Z,7028.00
2019-03-04T05:25:07.243Z,7020.00
2019-03-04T05:26:07.230Z,6948.00
2019-03-04T05:27:07.220Z,6864.00
2019-03-04T05:28:07.218Z,6712.00
2019-03-04T05:29:07.205Z,6620.00
2019-03-04T05:30:07.221Z,6532.00
2019-03-04T05:31:07.178Z,6448.00
2019-03-04T05:32:07.167Z,6396.00
2019-03-04T05:33:07.159Z,6372.00
2019-03-04T05:34:07.145Z,6364.00
2019-03-04T05:35:07.219Z,6312.00
2019-03-04T05:36:07.125Z,6280.00
2019-03-04T05:37:07.116Z,6268.00
2019-03-04T05:38:07.105Z,6216.00
2019-03-04T05:39:07.093Z,6196.00
2019-03-04T05:40:07.082Z,6120.00
2019-03-04T05:41:07.077Z,6056.00
2019-03-04T05:42:07.062Z,5932.00
2019-03-04T05:43:07.054Z,5632.00
2019-03-04T05:44:07.040Z,5640.00
2019-03-04T05:45:07.030Z,5768.00
2019-03-04T05:46:07.026Z,5924.00
2019-03-04T05:47:07.011Z,6032.00
2019-03-04T05:48:07.704Z,6048.00
2019-03-04T05:49:07.011Z,6188.00
2019-03-04T05:50:06.882Z,6252.00
2019-03-04T05:51:06.967Z,6336.00
2019-03-04T05:52:06.955Z,6412.00
2019-03-04T05:53:07.048Z,6484.00
2019-03-04T05:54:06.936Z,6608.00
2019-03-04T05:55:08.831Z,6720.00
2019-03-04T05:56:06.916Z,6836.00
2019-03-04T05:57:06.904Z,6924.00
2019-03-04T05:58:06.894Z,6984.00
2019-03-04T05:59:06.790Z,7060.00
2019-03-04T06:00:06.876Z,7180.00
2019-03-04T06:01:06.868Z,7352.00
2019-03-04T06:02:06.853Z,7572.00
2019-03-04T06:03:06.842Z,7792.00
2019-03-04T06:04:06.831Z,8008.00
2019-03-04T06:05:06.825Z,8216.00
2019-03-04T06:06:06.811Z,8360.00
2019-03-04T06:07:06.804Z,8432.00
2019-03-04T06:08:06.791Z,8496.00
2019-03-04T06:09:06.779Z,8540.00
2019-03-04T06:10:07.070Z,8516.00
2019-03-04T06:11:06.761Z,8176.00
2019-03-04T06:12:06.752Z,7672.00
2019-03-04T06:13:06.741Z,7372.00
2019-03-04T06:14:06.728Z,7104.00
2019-03-04T06:15:06.721Z,6996.00
2019-03-04T06:16:06.708Z,7052.00
2019-03-04T06:17:06.700Z,7196.00
2019-03-04T06:18:06.690Z,7284.00
2019-03-04T06:19:06.677Z,7404.00
2019-03-04T06:20:06.666Z,7592.00
2019-03-04T06:21:06.659Z,7784.00
2019-03-04T06:22:06.645Z,7820.00
2019-03-04T06:23:06.637Z,7876.00
2019-03-04T06:24:06.626Z,8028.00
2019-03-04T06:25:07.483Z,8096.00
2019-03-04T06:26:06.605Z,8044.00
2019-03-04T06:27:06.595Z,8028.00
2019-03-04T06:28:06.595Z,7924.00
2019-03-04T06:29:06.575Z,7772.00
2019-03-04T06:30:06.566Z,7576.00
2019-03-04T06:31:06.555Z,7372.00
2019-03-04T06:32:06.544Z,7212.00
2019-03-04T06:33:06.831Z,7052.00
2019-03-04T06:34:06.520Z,6900.00
2019-03-04T06:35:06.515Z,6772.00
2019-03-04T06:36:06.501Z,6672.00
2019-03-04T06:37:06.494Z,6588.00
2019-03-04T06:38:06.479Z,6524.00
2019-03-04T06:39:06.472Z,6476.00
2019-03-04T06:40:06.466Z,6440.00
2019-03-04T06:41:06.448Z,6388.00
2019-03-04T06:42:06.440Z,6352.00
2019-03-04T06:43:06.430Z,6296.00
2019-03-04T06:44:06.421Z,6212.00
2019-03-04T06:45:06.408Z,6148.00
2019-03-04T06:46:06.399Z,6104.00
2019-03-04T06:47:06.393Z,6080.00
2019-03-04T06:48:06.386Z,6052.00
2019-03-04T06:49:06.379Z,6032.00
2019-03-04T06:50:06.369Z,6044.00
2019-03-04T06:51:06.368Z,6060.00
2019-03-04T06:52:06.341Z,6056.00
2019-03-04T06:53:06.427Z,6044.00
2019-03-04T06:54:06.438Z,6016.00
2019-03-04T06:55:06.315Z,5992.00
2019-03-04T06:56:06.295Z,5940.00
2019-03-04T06:57:06.281Z,5880.00
2019-03-04T06:58:06.273Z,5820.00
2019-03-04T06:59:06.264Z,5776.00
2019-03-04T07:00:06.252Z,5756.00
2019-03-04T07:01:06.242Z,5720.00
2019-03-04T07:02:06.230Z,5712.00
2019-03-04T07:03:06.218Z,5680.00
2019-03-04T07:04:06.213Z,5680.00
2019-03-04T07:05:06.196Z,5684.00
2019-03-04T07:06:06.189Z,5700.00
2019-03-04T07:07:06.179Z,5728.00
2019-03-04T07:08:06.164Z,5736.00
2019-03-04T07:09:06.254Z,5752.00
2019-03-04T07:10:06.146Z,5768.00
2019-03-04T07:11:06.134Z,5744.00
2019-03-04T07:12:06.130Z,5744.00
2019-03-04T07:13:06.111Z,5768.00
2019-03-04T07:14:06.106Z,5792.00
2019-03-04T07:15:06.132Z,5832.00
2019-03-04T07:16:06.082Z,5892.00
2019-03-04T07:17:06.074Z,5936.00
2019-03-04T07:18:06.060Z,5936.00
2019-03-04T07:19:06.078Z,5916.00
2019-03-04T07:20:06.038Z,5896.00
2019-03-04T07:21:05.949Z,5876.00
2019-03-04T07:22:06.019Z,5816.00
2019-03-04T07:23:06.058Z,5720.00
2019-03-04T07:24:05.996Z,5736.00
2019-03-04T07:25:05.988Z,5800.00
2019-03-04T07:26:05.976Z,5864.00
2019-03-04T07:27:05.998Z,5920.00
2019-03-04T07:28:05.950Z,5968.00
2019-03-04T07:29:05.941Z,6036.00
2019-03-04T07:30:05.933Z,6112.00
2019-03-04T07:31:05.916Z,6140.00
2019-03-04T07:32:05.910Z,6144.00
2019-03-04T07:33:05.895Z,6176.00
2019-03-04T07:34:05.889Z,6200.00
2019-03-04T07:35:05.876Z,6200.00
2019-03-04T07:36:08.023Z,6240.00
2019-03-04T07:37:05.859Z,6324.00
2019-03-04T07:38:05.847Z,6388.00
2019-03-04T07:39:05.835Z,6464.00
2019-03-04T07:40:05.821Z,6548.00
2019-03-04T07:41:05.813Z,6576.00
2019-03-04T07:42:05.808Z,6592.00
2019-03-04T07:43:05.869Z,6628.00
2019-03-04T07:44:05.783Z,6700.00
2019-03-04T07:45:05.767Z,6728.00
2019-03-04T07:46:05.760Z,6776.00
2019-03-04T07:47:05.747Z,6840.00
2019-03-04T07:48:05.734Z,6932.00
2019-03-04T07:49:05.726Z,7044.00
2019-03-04T07:50:05.715Z,7156.00
2019-03-04T07:51:05.702Z,7228.00
2019-03-04T07:52:05.694Z,7252.00
2019-03-04T07:53:05.684Z,7192.00
2019-03-04T07:54:05.772Z,7152.00
2019-03-04T07:55:05.661Z,7156.00
2019-03-04T07:56:05.657Z,7272.00
2019-03-04T07:57:05.640Z,7388.00
2019-03-04T07:58:05.622Z,7488.00
2019-03-04T07:59:05.614Z,7552.00
2019-03-04T08:00:05.602Z,7580.00
2019-03-04T08:01:05.594Z,7560.00
2019-03-04T08:02:05.584Z,7524.00
2019-03-04T08:03:05.573Z,7504.00
2019-03-04T08:04:05.567Z,7432.00
2019-03-04T08:05:05.549Z,7328.00
2019-03-04T08:06:05.542Z,7228.00
2019-03-04T08:07:05.527Z,7128.00
2019-03-04T08:08:05.519Z,7084.00
2019-03-04T08:09:05.506Z,7056.00
2019-03-04T08:10:05.498Z,7048.00
2019-03-04T08:11:05.487Z,7096.00
2019-03-04T08:12:05.472Z,7124.00
2019-03-04T08:13:05.473Z,7112.00
2019-03-04T08:14:05.452Z,7076.00
2019-03-04T08:15:05.446Z,7080.00
2019-03-04T08:16:05.438Z,7064.00
2019-03-04T08:17:05.419Z,6984.00
2019-03-04T08:18:05.417Z,6900.00
2019-03-04T08:19:05.399Z,6800.00
2019-03-04T08:20:05.391Z,6756.00
2019-03-04T08:21:05.377Z,6812.00
2019-03-04T08:22:05.366Z,6920.00
2019-03-04T08:23:05.358Z,6952.00
2019-03-04T08:24:05.344Z,6956.00
2019-03-04T08:25:05.337Z,6992.00
2019-03-04T08:26:05.325Z,7020.00
2019-03-04T08:27:05.314Z,7016.00
2019-03-04T08:28:05.303Z,7028.00
2019-03-04T08:29:05.295Z,7104.00
2019-03-04T08:30:05.277Z,7204.00
2019-03-04T08:31:05.272Z,7332.00
2019-03-04T08:32:05.259Z,7392.00
2019-03-04T08:33:05.248Z,7356.00
2019-03-04T08:34:05.238Z,7344.00
2019-03-04T08:35:05.226Z,7340.00
2019-03-04T08:36:05.218Z,7264.00
2019-03-04T08:37:05.206Z,7148.00
2019-03-04T08:38:05.195Z,6940.00
2019-03-04T08:39:05.183Z,6836.00
2019-03-04T08:40:05.172Z,6904.00
2019-03-04T08:41:05.163Z,7056.00
2019-03-04T08:42:05.151Z,7040.00
2019-03-04T08:43:05.139Z,7032.00
2019-03-04T08:44:05.132Z,7180.00
2019-03-04T08:45:05.121Z,7228.00
2019-03-04T08:46:05.112Z,7292.00
2019-03-04T08:47:05.100Z,7308.00
2019-03-04T08:48:05.087Z,7300.00
2019-03-04T08:49:05.079Z,7148.00
2019-03-04T08:50:05.067Z,7008.00
2019-03-04T08:51:05.059Z,6876.00
2019-03-04T08:52:05.046Z,6804.00
2019-03-04T08:53:05.038Z,6752.00
2019-03-04T08:54:05.027Z,6772.00
2019-03-04T08:55:05.414Z,6760.00
2019-03-04T08:56:05.074Z,6808.00
2019-03-04T08:57:04.996Z,6868.00
2019-03-04T08:58:05.087Z,7032.00
2019-03-04T08:59:04.974Z,7208.00
2019-03-04T09:00:05.063Z,7452.00
2019-03-04T09:01:04.952Z,7540.00
2019-03-04T09:02:04.941Z,7480.00
2019-03-04T09:03:04.930Z,7324.00
2019-03-04T09:04:04.919Z,7204.00
2019-03-04T09:05:04.910Z,7112.00
2019-03-04T09:06:04.900Z,7044.00
2019-03-04T09:07:04.891Z,6936.00
2019-03-04T09:08:04.876Z,6708.00
2019-03-04T09:09:04.906Z,6432.00
2019-03-04T09:10:04.857Z,6136.00
2019-03-04T09:11:04.849Z,5944.00
2019-03-04T09:12:04.840Z,5864.00
2019-03-04T09:13:04.826Z,5996.00
2019-03-04T09:14:04.816Z,5972.00
2019-03-04T09:15:04.870Z,5860.00
2019-03-04T09:16:04.790Z,5740.00
2019-03-04T09:17:04.780Z,5588.00
2019-03-04T09:18:04.769Z,5476.00
2019-03-04T09:19:04.757Z,5368.00
2019-03-04T09:20:04.755Z,5260.00
2019-03-04T09:21:04.736Z,5128.00
2019-03-04T09:22:04.730Z,4936.00
2019-03-04T09:23:04.720Z,4772.00
2019-03-04T09:24:04.708Z,4580.00
2019-03-04T09:25:04.700Z,4360.00
2019-03-04T09:26:04.686Z,4172.00
2019-03-04T09:27:04.677Z,3892.00
2019-03-04T09:28:04.663Z,3528.00
2019-03-04T09:29:04.652Z,3224.00
2019-03-04T09:30:04.644Z,2984.00
2019-03-04T09:31:04.633Z,2748.00
2019-03-04T09:32:04.620Z,2564.00
2019-03-04T09:33:04.609Z,2440.00
2019-03-04T09:34:04.601Z,2344.00
2019-03-04T09:35:04.585Z,2248.00
2019-03-04T09:36:04.576Z,2104.00
2019-03-04T09:37:05.194Z,1932.00
2019-03-04T09:38:04.556Z,1776.00
2019-03-04T09:39:04.542Z,1668.00
2019-03-04T09:40:04.537Z,1592.00
2019-03-04T09:41:04.524Z,1548.00
2019-03-04T09:42:04.515Z,1528.00
2019-03-04T09:43:04.506Z,1496.00
2019-03-04T09:44:04.498Z,1472.00
2019-03-04T09:45:04.478Z,1456.00
2019-03-04T09:46:04.468Z,1436.00
2019-03-04T09:47:04.456Z,1428.00
2019-03-04T09:48:04.448Z,1420.00
2019-03-04T09:49:04.435Z,1416.00
2019-03-04T09:50:04.439Z,1424.00
2019-03-04T09:51:04.418Z,1436.00
2019-03-04T09:52:04.506Z,1480.00
2019-03-04T09:53:04.399Z,1556.00
2019-03-04T09:54:04.387Z,1672.00
2019-03-04T09:55:04.378Z,1832.00
2019-03-04T09:56:04.464Z,1992.00
2019-03-04T09:57:04.356Z,2152.00
2019-03-04T09:58:04.341Z,2304.00
2019-03-04T09:59:04.344Z,2448.00
2019-03-04T10:00:04.324Z,2608.00
2019-03-04T10:01:04.308Z,2768.00
2019-03-04T10:02:04.300Z,2980.00
2019-03-04T10:03:04.294Z,3200.00
2019-03-04T10:04:04.276Z,3440.00
2019-03-04T10:05:04.266Z,3768.00
2019-03-04T10:06:04.255Z,4064.00
2019-03-04T10:07:04.250Z,4324.00
2019-03-04T10:08:04.238Z,4560.00
2019-03-04T10:09:04.220Z,4744.00
2019-03-04T10:10:04.292Z,4940.00
2019-03-04T10:11:04.258Z,5080.00
2019-03-04T10:12:04.195Z,5176.00
2019-03-04T10:13:04.222Z,5240.00
2019-03-04T10:14:04.135Z,5284.00
2019-03-04T10:15:08.474Z,5292.00
2019-03-04T10:16:04.150Z,5252.00
2019-03-04T10:17:04.230Z,5200.00
2019-03-04T10:18:04.131Z,5184.00
2019-03-04T10:19:04.150Z,5232.00
2019-03-04T10:20:04.108Z,5328.00
2019-03-04T10:21:04.098Z,5504.00
2019-03-04T10:22:04.088Z,5720.00
2019-03-04T10:23:04.081Z,5928.00
2019-03-04T10:24:04.067Z,6116.00
2019-03-04T10:25:04.056Z,6252.00
2019-03-04T10:26:04.044Z,6332.00
2019-03-04T10:27:04.035Z,6364.00
2019-03-04T10:28:04.023Z,6384.00
2019-03-04T10:29:04.312Z,6388.00
2019-03-04T10:30:04.005Z,6352.00
2019-03-04T10:31:03.990Z,6340.00
2019-03-04T10:32:03.984Z,6396.00
2019-03-04T10:33:03.977Z,6428.00
2019-03-04T10:34:03.962Z,6472.00
2019-03-04T10:35:03.951Z,6456.00
2019-03-04T10:36:04.240Z,6364.00
2019-03-04T10:37:03.927Z,6224.00
2019-03-04T10:38:03.931Z,6144.00
2019-03-04T10:39:03.907Z,6060.00
2019-03-04T10:40:03.904Z,5960.00
2019-03-04T10:41:03.886Z,5876.00
2019-03-04T10:42:03.881Z,5844.00
2019-03-04T10:43:03.866Z,5832.00
2019-03-04T10:44:03.858Z,5848.00
2019-03-04T10:45:03.859Z,5876.00
2019-03-04T10:46:03.841Z,5880.00
2019-03-04T10:47:03.828Z,5860.00
2019-03-04T10:48:03.818Z,5832.00
2019-03-04T10:49:03.811Z,5788.00
2019-03-04T10:50:03.794Z,5756.00
2019-03-04T10:51:03.778Z,5732.00
2019-03-04T10:52:03.769Z,5668.00
2019-03-04T10:53:04.013Z,5572.00
2019-03-04T10:54:03.758Z,5432.00
2019-03-04T10:55:03.743Z,5216.00
2019-03-04T10:56:03.731Z,5028.00
2019-03-04T10:57:03.722Z,4812.00
2019-03-04T10:58:03.706Z,4608.00
2019-03-04T10:59:03.710Z,4384.00
2019-03-04T11:00:03.684Z,4200.00
2019-03-04T11:01:03.686Z,4052.00
2019-03-04T11:02:03.663Z,3968.00
2019-03-04T11:03:03.660Z,3896.00
2019-03-04T11:04:03.645Z,3848.00
2019-03-04T11:05:03.637Z,3824.00
2019-03-04T11:06:03.622Z,3824.00
2019-03-04T11:07:03.618Z,3824.00
2019-03-04T11:08:03.604Z,3812.00
2019-03-04T11:09:03.599Z,3780.00
2019-03-04T11:10:03.584Z,3772.00
2019-03-04T11:11:03.569Z,3820.00
2019-03-04T11:12:03.568Z,3820.00
2019-03-04T11:13:03.550Z,3876.00
2019-03-04T11:14:03.538Z,3952.00
2019-03-04T11:15:03.527Z,4016.00
2019-03-04T11:16:03.516Z,4032.00
2019-03-04T11:17:03.528Z,3976.00
2019-03-04T11:18:03.498Z,3924.00
2019-03-04T11:19:03.496Z,3840.00
2019-03-04T11:20:03.477Z,3796.00
2019-03-04T11:21:03.469Z,3732.00
2019-03-04T11:22:03.457Z,3648.00
2019-03-04T11:23:03.445Z,3588.00
2019-03-04T11:24:03.438Z,3564.00
2019-03-04T11:25:03.426Z,3540.00
2019-03-04T11:26:03.416Z,3556.00
2019-03-04T11:27:03.401Z,3556.00
2019-03-04T11:28:03.388Z,3516.00
2019-03-04T11:29:03.380Z,3468.00
2019-03-04T11:30:03.373Z,3404.00
2019-03-04T11:31:03.362Z,3356.00
2019-03-04T11:32:03.353Z,3312.00
2019-03-04T11:33:03.954Z,3240.00
2019-03-04T11:34:03.331Z,3108.00
2019-03-04T11:35:03.391Z,3024.00
2019-03-04T11:36:03.309Z,2988.00
2019-03-04T11:37:03.297Z,2940.00
2019-03-04T11:38:03.289Z,2904.00
2019-03-04T11:39:03.368Z,2880.00
2019-03-04T11:40:03.272Z,2840.00
2019-03-04T11:41:03.264Z,2780.00
2019-03-04T11:42:03.251Z,2716.00
2019-03-04T11:43:03.239Z,2668.00
2019-03-04T11:44:03.226Z,2648.00
2019-03-04T11:45:03.216Z,2628.00
2019-03-04T11:46:03.202Z,2600.00
2019-03-04T11:47:03.192Z,2528.00
2019-03-04T11:48:03.183Z,2472.00
2019-03-04T11:49:03.178Z,2440.00
2019-03-04T11:50:03.161Z,2424.00
2019-03-04T11:51:03.149Z,2412.00
2019-03-04T11:52:03.144Z,2372.00
2019-03-04T11:53:03.134Z,2304.00
2019-03-04T11:54:03.523Z,2232.00
2019-03-04T11:55:03.104Z,2168.00
2019-03-04T11:56:03.095Z,2108.00
2019-03-04T11:57:03.080Z,2064.00
2019-03-04T11:58:03.071Z,2016.00
2019-03-04T11:59:03.063Z,1964.00
2019-03-04T12:00:03.053Z,1920.00
2019-03-04T12:01:03.049Z,1876.00
2019-03-04T12:02:03.032Z,1840.00
2019-03-04T12:03:03.022Z,1816.00
2019-03-04T12:04:03.008Z,1796.00
2019-03-04T12:05:02.998Z,1776.00
2019-03-04T12:06:02.988Z,1752.00
2019-03-04T12:07:02.980Z,1728.00
2019-03-04T12:08:02.969Z,1692.00
2019-03-04T12:09:02.957Z,1648.00
2019-03-04T12:10:02.944Z,1616.00
2019-03-04T12:11:02.935Z,1576.00
2019-03-04T12:12:02.921Z,1548.00
2019-03-04T12:13:02.910Z,1520.00
2019-03-04T12:14:03.317Z,1492.00
2019-03-04T12:15:02.890Z,1456.00
2019-03-04T12:16:02.880Z,1428.00